Inscriptions en ligne

Connexion

6 Miles

6 Miles Pont de Briques du 11/02/18 (Reelle 9)
Rang Dossard Nom Prénom Temps Cat Rang Cat Ecart Ecart Cat Club Vitesse Km/h Temps au Km
1 561 PRUVOT YOHANN 00:29:55 SEM 1 00:00:00 00:00:00 A.S. MARCK 18,050 03:19
2 724 RAMET BENOIT 00:30:45 SEM 2 00:00:50 00:00:50 TOUQUET OPALE ATHLETISME 17,561 03:25
3 707 MONTADOR NICOLAS 00:31:09 SEM 3 00:01:14 00:01:14 ATHLETISME CLUB OUTREAU 17,335 03:28
4 319 GILLODTS Thomas 00:31:24 CAM 1 00:01:29 00:00:00 S/L CA COUDERKQUE-BRANCHE 17,197 03:29
5 550 HOLARD MAXIMILIEN 00:31:29 SEM 4 00:01:34 00:01:34 S/L MARQUISE A 17,152 03:30
6 754 NOWE ARNAUD 00:31:56 V1M 1 00:02:01 00:00:00 ELAN 59 16,910 03:33
7 246 CLEMENT DAMIEN 00:32:08 SEM 5 00:02:13 00:02:13 S/L US AC AUDOMAROIS 16,805 03:34
8 269 CLABAUX ALEXIS 00:32:40 SEM 6 00:02:45 00:02:45 PATRIOTES CROSS DE GUINES 16,531 03:38
9 289 PRUVOT ROMAIN 00:33:08 SEM 7 00:03:13 00:03:13 TOUQUET OPALE ATHLETISME 16,298 03:41
10 323 MATHIEU PAUL 00:33:10 SEM 8 00:03:15 00:03:15 A.S. MARCK 16,281 03:41
11 165 DECAE REMI 00:33:20 SEM 9 00:03:25 00:03:25 CA COUDEKERQUE-BRANCHE 16,200 03:42
12 686 DELVALLEE ALEXANDRE 00:33:23 SEM 10 00:03:28 00:03:28 ATHLETISME CLUB OUTREAU 16,176 03:43
13 737 SERGENT LOUIS 00:33:30 SEM 11 00:03:35 00:03:35 EMA/ SL MAQUISE 16,119 03:43
14 529 GRIVART VALENTIN 00:33:36 SEM 12 00:03:41 00:03:41 ATHLETIQUE CLUB CAPELLOIS 16,071 03:44
15 534 LEVEL FABIEN 00:33:44 SEM 13 00:03:49 00:03:49 ATHLETIQUE CLUB CAPELLOIS 16,008 03:45
16 499 VANDEWALLE THOMAS 00:33:51 SEM 14 00:03:56 00:03:56 NON LICENCIE 15,953 03:46
17 526 GOURDIN ERIC 00:34:01 V1M 2 00:04:06 00:02:05 ATHLETIQUE CLUB CAPELLOIS 15,875 03:47
18 326 VAMBRE LAURENT 00:34:07 V1M 3 00:04:12 00:02:11 TOUQUET OPALE ATHLETISME 15,828 03:47
19 454 HANQUEZ RODRIGUE 00:34:14 V1M 4 00:04:19 00:02:18 TOUQUET TRAIL NATURE 15,774 03:48
20 168 DE GRAEVE PATRICK 00:34:19 V1M 5 00:04:24 00:02:23 CACB 15,736 03:49
21 318 GILLODTS GUILLAUME 00:34:25 V1M 6 00:04:30 00:02:29 CLUB ATHLE. COUDEKERQUE-B 15,690 03:49
22 594 GUILBERT HERVE 00:34:29 V2M 1 00:04:34 00:00:00 R.C ARRAS 15,660 03:50
23 618 DUCROCQ MARC ANTOINE 00:34:32 SEM 15 00:04:37 00:04:37 BOULOGNE AC 15,637 03:50
24 469 LEFEBVRE ALEXIS 00:34:32 SEM 16 00:04:37 00:04:37 15,637 03:50
25 215 SUEUR SAMUEL 00:34:45 V1M 7 00:04:50 00:02:49 OMNISPORTS CAMPAGNE LES HESDIN 15,540 03:52
26 321 DETRES ADRIEN 00:34:58 JUM 1 00:05:03 00:00:00 A.S. MARCK 15,443 03:53
27 722 VANSTRAZEELE MATHIEU 00:34:58 SEM 17 00:05:03 00:05:03 ATHLETISME CLUB OUTREAU 15,443 03:53
28 624 WIDEHEM MICKAEL 00:35:08 V1M 8 00:05:13 00:03:12 BOULOGNE ATHLETIQUE CLUB 15,370 03:54
29 838 APHERVE OLIVIER 00:35:13 CAM 2 00:05:18 00:03:49 ENTENTE MARITIME ATHL. 15,334 03:55
30 332 LIMOUSIN STEPHANE 00:35:15 V1M 9 00:05:20 00:03:19 PATRIOTE CROSS DE GUINES 15,319 03:55
31 131 DEGRAVE GUILLAUME 00:35:24 SEM 18 00:05:29 00:05:29 COURIR A GRAVELINES 15,254 03:56
32 631 MAQUINGHEN CHRISTOPHE 00:35:30 V1M 10 00:05:35 00:03:34 BOULOGNE ATHLETIQUE CLUB 15,211 03:57
33 562 BELLEVILLE PHILIPPE 00:35:37 V2M 2 00:05:42 00:01:08 NON LICENCIE 15,161 03:57
34 58 OSSTYN PATRICE 00:35:40 V1M 11 00:05:45 00:03:44 TEAM TRAIL 62 15,140 03:58
35 382 BATTESTI DAVID 00:35:40 SEM 19 00:05:45 00:05:45 TEAM TRAIL 62 15,140 03:58
36 243 PECQUEUX LUCAS 00:35:43 SEM 20 00:05:48 00:05:48 TRIATHLON CLUB BOULONNAIS 15,119 03:58
37 514 IMMOUNI ABDEL AZIZ 00:35:44 V1M 12 00:05:49 00:03:48 - 15,112 03:58
38 551 PINTE LOIC 00:35:44 SEM 21 00:05:49 00:05:49 S/L MARQUISE A 15,112 03:58
39 720 SUEUR LOIC 00:35:45 V1M 13 00:05:50 00:03:49 ATHLETISME CLUB OUTREAU 15,105 03:58
40 148 BRISBAERT MATTHIEU 00:35:48 SEM 22 00:05:53 00:05:53 COURIR A GRAVELINES 15,084 03:59
41 237 LEBLOND ARNAUD 00:35:49 V1M 14 00:05:54 00:03:53 15,077 03:59
42 704 MALFOY JEREMY 00:35:55 SEM 23 00:06:00 00:06:00 ATHLETISME CLUB OUTREAU 15,035 03:59
43 166 THILLOY MARC 00:35:56 SEM 24 00:06:01 00:06:01 CA COUDEKERQUE-BRANCHE 15,028 04:00
44 767 RICOUART ALAIN 00:35:56 V1M 15 00:06:01 00:04:00 AC AUDOMAROIS 15,028 04:00
45 542 SAUNEUF PHILIPPE 00:35:57 V1M 16 00:06:02 00:04:01 ATHLETIQUE CLUB CAPELLOIS 15,021 04:00
46 91 WIMILLE OLIVIER 00:35:57 V1M 17 00:06:02 00:04:01 - 15,021 04:00
47 209 BALY SYLVAIN 00:35:58 SEM 25 00:06:03 00:06:03 TEAM BALY 15,014 04:00
48 1 CARON VASSEUR Sophie Yohann 00:35:59 DUX 1 00:06:04 00:00:00 Lys Calais triathlon 15,007 04:00
49 259 DUCROCQ LINDA 00:36:02 SEF 1 00:06:07 00:00:00 PATRIOTES CROSS DE GUINES 14,986 04:00
50 584 DUHAMEL PHILIPPE 00:36:09 V2M 3 00:06:14 00:01:40 - 14,938 04:01
51 415 DOCQUOIS FREDERIC 00:36:20 V1M 18 00:06:25 00:04:24 LE DRAPEAU 14,862 04:02
52 258 DENIS GWENDOLINE 00:36:22 SEF 2 00:06:27 00:00:20 PATRIOTES CROSS DE GUINES 14,849 04:02
53 153 BALY FRANCOIS 00:36:34 SEM 26 00:06:39 00:06:39 TEAM BALY 14,768 04:04
54 108 LEBLOND STEPHANE 00:36:36 SEM 27 00:06:41 00:06:41 - 14,754 04:04
55 307 PRUDHOMME GEORGES 00:36:39 V2M 4 00:06:44 00:02:10 COURIR DANS LE LUMBROIS 14,734 04:04
56 616 SUEUR FABRICE 00:36:43 V1M 19 00:06:48 00:04:47 BOULOGNE ATHLETIQUE CLUB 14,707 04:05
57 699 LEHON LUDOVIC 00:36:43 SEM 28 00:06:48 00:06:48 ATHLETISME CLUB OUTREAU 14,707 04:05
58 31 DANDRE GALLET Albane Arnaud 00:36:47 DUX 2 00:06:52 00:00:48 Nono Babane 14,681 04:05
59 250 MAQUINGHEN JULIEN 00:36:49 SEM 29 00:06:54 00:06:54 - 14,667 04:05
60 557 MASCOT GREGORY 00:36:54 V1M 20 00:06:59 00:04:58 TRIATHLON CLUB BOULONNAIS 14,634 04:06
61 233 GILLODTS ISABELLE 00:36:55 V1F 1 00:07:00 00:00:00 CLUB ATHLE. COUDEKERQUE-B 14,628 04:06
62 489 QUENUT LAURENT 00:36:56 V1M 21 00:07:01 00:05:00 ASL 14,621 04:06
63 735 DUCLOY KEVIN 00:36:59 SEM 30 00:07:04 00:07:04 BOULOGNE ATHLETIQUE CLUB 14,601 04:07
64 694 LANOY STEPHANE 00:37:06 V1M 22 00:07:11 00:05:10 ATHLETISME CLUB OUTREAU 14,555 04:07
65 682 DAMBREVILLE BENJAMIN 00:37:08 SEM 31 00:07:13 00:07:13 ATHLETISME CLUB OUTREAU 14,542 04:08
66 124 TISSERAND THIBAUT 00:37:15 SEM 32 00:07:20 00:07:20 - 14,497 04:08
67 111 HIRSCH RUDY 00:37:33 V1M 23 00:07:38 00:05:37 14,381 04:10
68 26 LUCAS BERTIN Rébecca Thomas 00:37:34 DUX 3 00:07:39 00:01:35 LES POULPES ! 14,374 04:10
69 577 LEDEZ JEREMY 00:37:34 SEM 33 00:07:39 00:07:39 BOULOGNE ATHLETIQUE CLUB 14,374 04:10
70 657 LOIRE NICOLAS 00:37:38 SEM 34 00:07:43 00:07:43 LYS CALAIS TRIATHLON 14,349 04:11
71 6 DEVIN BAILLET Alexis Laura 00:37:39 DUX 4 00:07:44 00:01:40 Forrest gump 14,343 04:11
72 583 BRUNEL JEAN-FRANCOIS 00:37:41 V1M 24 00:07:46 00:05:45 14,330 04:11
73 585 HODIQUE HERVE 00:37:41 V1M 25 00:07:46 00:05:45 TEAM TRAIL 62 14,330 04:11
74 640 MIESZCZAK YANNICK 00:37:44 V1M 26 00:07:49 00:05:48 - 14,311 04:12
75 280 CARBONNIER MICHEL 00:37:48 V1M 27 00:07:53 00:05:52 PATRIOTES CROSS DE GUINES 14,286 04:12
76 552 GARCIA BRUNO 00:37:49 V1M 28 00:07:54 00:05:53 14,279 04:12
77 769 GEST SAMUEL 00:37:49 V1M 29 00:07:54 00:05:53 DESVRES ATHLETISME 14,279 04:12
78 29 RIGAUT GAJEWSKI Jean-baptiste Helene 00:37:54 DUX 5 00:07:59 00:01:55 14,248 04:13
79 120 MENUGE ANTHONY 00:37:57 SEM 35 00:08:02 00:08:02 NON LICENCIE 14,229 04:13
80 698 LEGRAND OLIVIER 00:38:00 V1M 30 00:08:05 00:06:04 ATHLETISME CLUB OUTREAU 14,211 04:13
81 433 SAUVAGE FREDERIC 00:38:01 V1M 31 00:08:06 00:06:05 LE DRAPEAU 14,204 04:13
82 266 DEFACHELLES HERVE 00:38:03 V1M 32 00:08:08 00:06:07 PATRIOTES CROSS DE GUINES 14,192 04:14
83 5 VANDERSTRAETEN VANDERSTRAETEN Christophe Karine 00:38:04 DUX 6 00:08:09 00:02:05 COURIR A GRAVELINES 14,186 04:14
84 759 CABOCHE CHRISTOPHE 00:38:04 V1M 33 00:08:09 00:06:08 A.S. MARCK 14,186 04:14
85 443 DAMBRON QUENTIN 00:38:04 JUM 2 00:08:09 00:03:06 14,186 04:14
86 536 LEVEL LINA 00:38:04 SEF 3 00:08:09 00:02:02 ATHLETIQUE CLUB CAPELLOIS 14,186 04:14
87 719 SORET FRANCK 00:38:06 SEM 36 00:08:11 00:08:11 ATHLETISME CLUB OUTREAU 14,173 04:14
88 477 LEGAGNEUR MATHIEU 00:38:06 SEM 37 00:08:11 00:08:11 - 14,173 04:14
89 674 BOBEE NATHALIE 00:38:07 V1F 2 00:08:12 00:01:12 ATHLETISME CLUB OUTREAU 14,167 04:14
90 412 CARDON FLORIAN 00:38:10 SEM 38 00:08:15 00:08:15 LE DRAPEAU 14,148 04:14
91 315 MANTEZ OLIVIER 00:38:14 V2M 5 00:08:19 00:03:45 A.S. MARCK 14,124 04:15
92 747 GUERIN RENE 00:38:20 V1M 34 00:08:25 00:06:24 FREVENT OLYMPIC CLUB 14,087 04:16
93 595 DUFOUR CHANTAL 00:38:20 V1F 3 00:08:25 00:01:25 TOUQUET OPALE ATHLETISME 14,087 04:16
94 161 BETIN PATRICK 00:38:28 V2M 6 00:08:33 00:03:59 CACB 14,038 04:16
95 28 HENU DELVINCOURT Benjamin Joséphine 00:38:30 DUX 7 00:08:35 00:02:31 Lys Calais triathlon 14,026 04:17
96 324 MATHIEU EMMANUEL 00:38:31 V2M 7 00:08:36 00:04:02 A.S. MARCK 14,020 04:17
97 223 KINTS THOMAS 00:38:32 SEM 39 00:08:37 00:08:37 TEAM TRAIL 62 14,014 04:17
98 665 LARUELLE FREDERIC 00:38:34 V1M 35 00:08:39 00:06:38 WIMEREUX RUNNING CLUB 14,002 04:17
99 486 VASSEUR THOMAS 00:38:34 SEM 40 00:08:39 00:08:39 ASL 14,002 04:17
100 677 BOURGAIN SEBASTIEN 00:38:35 V1M 36 00:08:40 00:06:39 ATHLETISME CLUB OUTREAU 13,996 04:17
101 840 GOZE PHILIPPE 00:38:37 V1M 37 00:08:42 00:06:41 OMNISPORT AIROIS 13,984 04:17
102 255 MAZURIER ALAIN 00:38:38 V2M 8 00:08:43 00:04:09 PATRIOTES CROSS DE GUINES 13,978 04:18
103 85 LEMAITRE LAURENT 00:38:39 V1M 38 00:08:44 00:06:43 - 13,972 04:18
104 723 ROBERVAL GAUTIER 00:38:40 SEM 41 00:08:45 00:08:45 - 13,966 04:18
105 446 BAYEUX THEO 00:38:43 CAM 3 00:08:48 00:07:19 EMA/ SL MARQUISE 13,947 04:18
106 25 LEMAITRE ROBACHE Marie Julien 00:38:44 DUX 8 00:08:49 00:02:45 13,941 04:18
107 678 BOURRE JULIEN 00:38:46 SEM 42 00:08:51 00:08:51 ATHLETISME CLUB OUTREAU 13,929 04:18
108 484 STEEN FREDERIC 00:38:49 V1M 39 00:08:54 00:06:53 ASL 13,912 04:19
109 697 LEDOUX VINCENT 00:38:57 SEM 43 00:09:02 00:09:02 ATHLETISME CLUB OUTREAU 13,864 04:20
110 286 ALLAN SEBASTIEN 00:38:59 V1M 40 00:09:04 00:07:03 NON LICENCIE 13,852 04:20
111 789 CAPPE ALEXANDRE 00:39:03 SEM 44 00:09:08 00:09:08 - 13,828 04:20
112 794 LESAGE PIERRE 00:39:04 CAM 4 00:09:09 00:07:40 - 13,823 04:20
113 7 WACOGNE WACOGNE Mickael Céline 00:39:06 DUX 9 00:09:11 00:03:07 13,811 04:21
114 587 JANDAU FABIEN 00:39:07 V1M 41 00:09:12 00:07:11 TEAM O2PALE 13,805 04:21
115 515 THUILLIER RENAUD 00:39:11 SEM 45 00:09:16 00:09:16 TOUQUET OPALE ATHLETISME 13,781 04:21
116 603 CUCHEVAL FLORENCE 00:39:12 V1F 4 00:09:17 00:02:17 13,776 04:21
117 670 BADON EMMANUEL 00:39:13 V1M 42 00:09:18 00:07:17 ATHLETISME CLUB OUTREAU 13,770 04:21
118 604 MOUSSAY MATTHIEU 00:39:14 SEM 46 00:09:19 00:09:19 13,764 04:22
119 403 ANNO CHRISTOPHE 00:39:15 V1M 43 00:09:20 00:07:19 LE DRAPEAU 13,758 04:22
120 114 PAVY FREDERIC 00:39:16 V1M 44 00:09:21 00:07:20 NON LICENCIE 13,752 04:22
121 9 BAY LEGRAND Anaëlle Cédric 00:39:18 DUX 10 00:09:23 00:03:19 Club 1 13,740 04:22
122 224 DELAPLACE LOIC 00:39:19 V1M 45 00:09:24 00:07:23 13,735 04:22
123 498 PODVIN CLAUDINE 00:39:20 V1F 5 00:09:25 00:02:25 TOUQUET OPALE ATHLETISME 13,729 04:22
124 736 DECUPPER ELODIE 00:39:20 SEF 4 00:09:25 00:03:18 TEAM O2PALE 13,729 04:22
125 654 PILLOT THEOPHILE 00:39:23 V1M 46 00:09:28 00:07:27 FREVENT OLYMPIC CLUB 13,711 04:23
126 524 DUBOIS STEPHANE 00:39:29 V1M 47 00:09:34 00:07:33 ATHLETIQUE CLUB CAPELLOIS 13,677 04:23
127 313 DAQUIN NICOLAS 00:39:36 SEM 47 00:09:41 00:09:41 - 13,636 04:24
128 322 DETRES JEAN-BERNARD 00:39:50 V1M 48 00:09:55 00:07:54 A.S. MARCK 13,556 04:26
129 474 GODEC RONAN 00:39:51 V1M 49 00:09:56 00:07:55 - 13,551 04:26
130 90 CLARYS LUDOVIC 00:39:52 SEM 48 00:09:57 00:09:57 COURIR A GRAVELINES 13,545 04:26
131 569 FORESTIER ALAIN 00:39:52 V2M 9 00:09:57 00:05:23 AMICALE HOSPITALIERS BOULOGNE 13,545 04:26
132 632 DUCROCQ YVES 00:39:52 V3M 1 00:09:57 00:00:00 - 13,545 04:26
133 410 BEGUE THIERRY 00:39:53 V2M 10 00:09:58 00:05:24 LE DRAPEAU 13,539 04:26
134 67 COLIER JEREMY 00:39:53 SEM 49 00:09:58 00:09:58 - 13,539 04:26
135 511 EECKELOO FRANCIS 00:39:54 V2M 11 00:09:59 00:05:25 13,534 04:26
136 87 WILLEMAN DAVID 00:39:59 V1M 50 00:10:04 00:08:03 COURIR A GRAVELINES 13,506 04:27
137 582 COUPIN FRANCK 00:40:01 SEM 50 00:10:06 00:10:06 - 13,494 04:27
138 467 MANIER WILLIAM 00:40:11 SEM 51 00:10:16 00:10:16 - 13,438 04:28
139 320 GILLODTS REMY 00:40:19 JUM 3 00:10:24 00:05:21 CLUB ATHLE. COUDEKERQUE-B 13,394 04:29
140 214 MOYSE CHRISTOPHE 00:40:25 V2M 12 00:10:30 00:05:56 TOUQUET OPALE ATHLETISME 13,361 04:29
141 310 KERCKHOVE JEREMY 00:40:26 SEM 52 00:10:31 00:10:31 13,355 04:30
142 841 CALOIN WILLIAM 00:40:28 V1M 51 00:10:33 00:08:32 - 13,344 04:30
143 84 JOIGNAUX JULIEN 00:40:32 SEM 53 00:10:37 00:10:37 - 13,322 04:30
144 195 MULLIEZ AMAURY 00:40:32 V1M 52 00:10:37 00:08:36 - 13,322 04:30
145 457 CADET JEAN PHILIPPE 00:40:37 V1M 53 00:10:42 00:08:41 A.S. MARCK 13,295 04:31
146 376 HADRI SEBASTIEN 00:40:37 SEM 54 00:10:42 00:10:42 FOULEES LOONOISES 13,295 04:31
147 801 LECIGNE DAVID 00:40:38 V1M 54 00:10:43 00:08:42 BOULOGNE ATHLETIQUE CLUB 13,290 04:31
148 688 DEU DAVID 00:40:40 SEM 55 00:10:45 00:10:45 ATHLETISME CLUB OUTREAU 13,279 04:31
149 30 LEMAIRE DÉTANT Benjamin Julie 00:40:41 DUX 11 00:10:46 00:04:42 13,273 04:31
150 727 VALLEZ ANICET 00:40:49 CAM 5 00:10:54 00:09:25 ASSOCIATION DE BADMINTON STEPHANOISE 13,230 04:32
151 655 D'HAILLECOURT DAVID 00:40:50 V1M 55 00:10:55 00:08:54 - 13,224 04:32
152 482 BOURDON JEROME 00:40:50 V1M 56 00:10:55 00:08:54 - 13,224 04:32
153 668 TILLIER LUDOVIC 00:40:51 V1M 57 00:10:56 00:08:55 WIMEREUX RUNNING CLUB 13,219 04:32
154 630 HEMBERT ANTOINE 00:40:51 V1M 58 00:10:56 00:08:55 BOULOGNE ATHLETIQUE CLUB 13,219 04:32
155 639 PARENT BLAISE 00:40:55 SEM 56 00:11:00 00:11:00 AS CAMIERS 13,198 04:33
156 59 FLAHAUT DANIEL 00:40:56 V1M 59 00:11:01 00:09:00 PATRIOTES CROSS DE GUINES 13,192 04:33
157 783 PIERRU Julien 00:41:01 SEM 57 00:11:06 00:11:06 - 13,165 04:33
158 764 WATBLED NICOLAS 00:41:01 JUM 4 00:11:06 00:06:03 LYS CALAIS TRIATHLON 13,165 04:33
159 218 DIEVAL JACQUES 00:41:01 V1M 60 00:11:06 00:09:05 - 13,165 04:33
160 449 COMBET PHILIPPE 00:41:02 V3M 2 00:11:07 00:01:10 COURIR A GRAVELINES 13,160 04:34
161 119 CANIPEL JEROME 00:41:11 SEM 58 00:11:16 00:11:16 - 13,112 04:35
162 667 MAGNIER OLIVIER 00:41:14 V1M 61 00:11:19 00:09:18 WIMEREUX RUNNING CLUB 13,096 04:35
163 83 ROCHE BERNARD 00:41:20 V2M 13 00:11:25 00:06:51 - 13,065 04:36
164 187 LENSEN ERIC 00:41:25 V1M 62 00:11:30 00:09:29 PASS RUNNING 13,038 04:36
165 262 BUY JACQUES 00:41:25 V3M 3 00:11:30 00:01:33 PATRIOTES CROSS DE GUINES 13,038 04:36
166 273 BATILLIOT DOMINIQUE 00:41:27 V2F 1 00:11:32 00:00:00 PATRIOTES CROSS DE GUINES 13,028 04:36
167 297 TREMBLAY PHILIPPE 00:41:29 V2M 14 00:11:34 00:07:00 - 13,017 04:37
168 139 MEREAUX PIERRE 00:41:30 SEM 59 00:11:35 00:11:35 NON LICENCIE 13,012 04:37
169 205 MASSON STEPHANE 00:41:31 V1M 63 00:11:36 00:09:35 - 13,007 04:37
170 147 CORROYETTE ANTHONY 00:41:32 SEM 60 00:11:37 00:11:37 ELAN FRUGEOIS 13,002 04:37
171 249 OPALA VINCENT 00:41:33 SEM 61 00:11:38 00:11:38 12,996 04:37
172 389 BAILLET CHRISTIAN 00:41:34 V2M 15 00:11:39 00:07:05 SPORT PLUS 12,991 04:37
173 473 ROBART EDDY 00:41:34 V1M 64 00:11:39 00:09:38 CS NESLES 12,991 04:37
174 416 DURU JONATHAN 00:41:37 SEM 62 00:11:42 00:11:42 LE DRAPEAU 12,976 04:37
175 463 MOUSSAY LAURENT 00:41:37 V2M 16 00:11:42 00:07:08 A.S. MARCK 12,976 04:37
176 470 CARRE MAXIME 00:41:38 SEM 63 00:11:43 00:11:43 - 12,970 04:38
177 381 LELEU JEAN-FRANCOIS 00:41:40 V2M 17 00:11:45 00:07:11 CALAIS NATATION 12,960 04:38
178 588 DECROCK MATHEO 00:41:44 CAM 6 00:11:49 00:10:20 12,939 04:38
179 176 SAINT-MAXENT DAVID 00:41:46 SEM 64 00:11:51 00:11:51 - 12,929 04:38
180 777 BARBIER JACQUES 00:41:46 V3M 4 00:11:51 00:01:54 VAL DE SOMME 12,929 04:38
181 19 BOUCHEZ PERARD Florent Emeline 00:41:49 DUX 12 00:11:54 00:05:50 Lys Calais triathlon 12,914 04:39
182 56 MARTEL SAMUEL 00:41:50 V1M 65 00:11:55 00:09:54 - 12,908 04:39
183 132 GIGADEN MATHILDE 00:41:52 V1F 6 00:11:57 00:04:57 - 12,898 04:39
184 341 COUVELARD JULIEN 00:41:53 SEM 65 00:11:58 00:11:58 - 12,893 04:39
185 502 SCOTTE MATTHIEU 00:42:00 V1M 66 00:12:05 00:10:04 - 12,857 04:40
186 420 GUEUDRE FABRICE 00:42:00 SEM 66 00:12:05 00:12:05 LE DRAPEAU 12,857 04:40
187 92 SOUDAIN NICOLAS 00:42:04 SEM 67 00:12:09 00:12:09 12,837 04:40
188 2 MARGUET MASOUYÉ Lucie David 00:42:04 DUX 13 00:12:09 00:06:05 12,837 04:40
189 260 BOIS STEPHANE 00:42:05 V1M 67 00:12:10 00:10:09 PATRIOTES CROSS DE GUINES 12,832 04:41
190 208 LEFEBVRE LUDOVIC 00:42:06 V2M 18 00:12:11 00:07:37 A.S. MARCK 12,827 04:41
191 342 DURIEZ MANU 00:42:07 V1M 68 00:12:12 00:10:11 12,822 04:41
192 254 DENEZ ANNE-SOPHIE 00:42:10 V1F 7 00:12:15 00:05:15 PATRIOTES CROSS DE GUINES 12,806 04:41
193 749 LELAN CEDRIC 00:42:10 V1M 69 00:12:15 00:10:14 12,806 04:41
194 530 KRONUS JOEL 00:42:13 V2M 19 00:12:18 00:07:44 ATHLETIQUE CLUB CAPELLOIS 12,791 04:41
195 795 FOURQUEZ CHRISTOPHE 00:42:14 V2M 20 00:12:19 00:07:45 - 12,786 04:42
196 675 BOUDEVILLE ADRIEN 00:42:15 SEM 68 00:12:20 00:12:20 ATHLETISME CLUB OUTREAU 12,781 04:42
197 70 VANHOOVE FRANCK 00:42:18 V1M 70 00:12:23 00:10:22 COURIR A GRAVELINES 12,766 04:42
198 135 ELLART DAVID 00:42:24 SEM 69 00:12:29 00:12:29 12,736 04:43
199 306 DELEGLISE CYRIL 00:42:25 SEM 70 00:12:30 00:12:30 COURIR DANS LE LUMBROIS 12,731 04:43
200 766 BRUNELLE MAXIME 00:42:27 SEM 71 00:12:32 00:12:32 12,721 04:43
201 63 COUVELARD JOEL 00:42:30 SEM 72 00:12:35 00:12:35 - 12,706 04:43
202 459 MALLIOPOULOS XAVIER 00:42:33 V2M 21 00:12:38 00:08:04 BERCK A C O 12,691 04:44
203 506 RAMET GUILLAUME 00:42:36 JUM 5 00:12:41 00:07:38 TOUQUET OPALE ATHLETISME 12,676 04:44
204 803 LANDRECIES LOIC 00:42:36 SEM 73 00:12:41 00:12:41 - 12,676 04:44
205 72 VERRIELE BENOIT 00:42:37 V2M 22 00:12:42 00:08:08 12,671 04:44
206 248 DUCROCQ ELODIE 00:42:37 SEF 5 00:12:42 00:06:35 TOUQUET TRAIL NATURE 12,671 04:44
207 380 ANTOINE ERIC 00:42:38 V1M 71 00:12:43 00:10:42 C.S.L.G COTE D'OPALE 12,666 04:44
208 652 SCHUPPE CLOTAIRE 00:42:39 V2M 23 00:12:44 00:08:10 A.S. MARCK 12,661 04:44
209 411 BOUVOT CYRILLE 00:42:41 SEM 74 00:12:46 00:12:46 LE DRAPEAU 12,651 04:45
210 288 JOLY LEA 00:42:42 SEF 6 00:12:47 00:06:40 TOUQUET OPALE ATHLETISME 12,646 04:45
211 589 LELEU FRANCK 00:42:43 V2M 24 00:12:48 00:08:14 - 12,641 04:45
212 689 FEUTRY DAVID 00:42:44 V1M 72 00:12:49 00:10:48 ATHLETISME CLUB OUTREAU 12,637 04:45
213 842 DOUILLER VINCENT 00:42:47 V2M 25 00:12:52 00:08:18 NON LICENCIE 12,622 04:45
214 505 VLIEGHE JACQUES 00:42:48 V2M 26 00:12:53 00:08:19 LE DRAPEAU 12,617 04:45
215 144 CRESSON PASCAL 00:42:50 V2M 27 00:12:55 00:08:21 A.S. MARCK 12,607 04:46
216 438 CRESSON KARL 00:42:50 V1M 73 00:12:55 00:10:54 12,607 04:46
217 211 BALY PATRICK 00:42:51 V3M 5 00:12:56 00:02:59 TEAM BALY 12,602 04:46
218 177 OLIVEIRA TONY 00:42:52 V1M 74 00:12:57 00:10:56 12,597 04:46
219 128 CANTIN DAVID 00:42:54 SEM 75 00:12:59 00:12:59 12,587 04:46
220 78 PIOT BENJAMIN 00:42:57 SEM 76 00:13:02 00:13:02 - 12,573 04:46
221 238 REGNIER JEAN PIERRE 00:42:57 V1M 75 00:13:02 00:11:01 - 12,573 04:46
222 706 MINET CORENTINE 00:42:57 SEF 7 00:13:02 00:06:55 ATHLETISME CLUB OUTREAU 12,573 04:46
223 173 HALOY CHRISTOPHE 00:42:58 V2M 28 00:13:03 00:08:29 12,568 04:46
224 232 BLEUSE RICHARD 00:42:58 V2M 29 00:13:03 00:08:29 CA COUDEKERQUE-BRANCHE 12,568 04:46
225 314 DESGARDIN VINCENT 00:42:58 SEM 77 00:13:03 00:13:03 - 12,568 04:46
226 774 BAUDELET NICOLAS 00:42:59 SEM 78 00:13:04 00:13:04 LE DRAPEAU 12,563 04:47
227 622 LEGRAND EDDY 00:42:59 V1M 76 00:13:04 00:11:03 BOULOGNE ATHLETIQUE CLUB 12,563 04:47
228 137 BRANLY HERVE 00:43:00 V1M 77 00:13:05 00:11:04 - 12,558 04:47
229 300 PRUDHOMME FRANCKY 00:43:02 V1M 78 00:13:07 00:11:06 COURIR DANS LE LUMBROIS 12,548 04:47
230 104 DELANNOY FRANCOIS 00:43:04 SEM 79 00:13:09 00:13:09 LAPUGNOY 12,539 04:47
231 619 LOUCHET FLORIAN 00:43:05 JUM 6 00:13:10 00:08:07 BOULOGNE ATHLETIQUE CLUB 12,534 04:47
232 570 GUYOT REMI 00:43:06 SEM 80 00:13:11 00:13:11 AMICALE HOSPITALIERS BOULOGNE 12,529 04:47
233 725 LEPRETRE CLEMENT 00:43:07 SEM 81 00:13:12 00:13:12 TOUQUET OPALE ATHLETISME 12,524 04:47
234 661 DUBRULLE FRANCK 00:43:09 V2M 30 00:13:14 00:08:40 WIMEREUX RUNNING CLUB 12,514 04:48
235 441 ALLEXANDRE GERALD 00:43:10 V1M 79 00:13:15 00:11:14 JOGGING CLUB LICQUOIS 12,510 04:48
236 448 CRETEL LAURENT 00:43:11 V1M 80 00:13:16 00:11:15 CS NESLES 12,505 04:48
237 20 TETARD TETARD Christophe Isabelle 00:43:11 DUX 14 00:13:16 00:07:12 Athletic Club Capellois 12,505 04:48
238 770 LEDUC JEAN-MAURICE 00:43:13 V1M 81 00:13:18 00:11:17 DESVRES ATHLETISME 12,495 04:48
239 644 LOUASSE HUGO 00:43:13 SEM 82 00:13:18 00:13:18 12,495 04:48
240 548 FAIVRE CELINE 00:43:13 V1F 8 00:13:18 00:06:18 S/L MARQUISE A 12,495 04:48
241 3 CARLU CARLU Ludovic Anais 00:43:13 DUX 15 00:13:18 00:07:14 non 12,495 04:48
242 436 GOCHE NATHAN 00:43:13 JUM 7 00:13:18 00:08:15 12,495 04:48
243 245 LEROY WANDRILLE 00:43:14 SEM 83 00:13:19 00:13:19 12,490 04:48
244 601 PIERRU JULIEN 00:43:14 SEM 84 00:13:19 00:13:19 - 12,490 04:48
245 451 HENON MAXIME 00:43:16 SEM 85 00:13:21 00:13:21 COURIR DANS LE LUMBROIS 12,481 04:48
246 252 DUMONT GEORGES 00:43:20 V1M 82 00:13:25 00:11:24 TOUQUET TRAIL NATURE 12,462 04:49
247 210 MARGOLLE CHRISTOPHE 00:43:21 V2M 31 00:13:26 00:08:52 AS CAMIERS 12,457 04:49
248 354 VANDENABEELE VIRGINIE 00:43:22 V1F 9 00:13:27 00:06:27 A.S. MARCK 12,452 04:49
249 465 FRAMEZELLE DAVID 00:43:22 SEM 86 00:13:27 00:13:27 12,452 04:49
250 481 DHERBECOURT CHRISTOPHE 00:43:24 V2M 32 00:13:29 00:08:55 TRIATHLON CLUB BOULONNAIS 12,442 04:49
251 213 LABOURE ROMAIN 00:43:25 SEM 87 00:13:30 00:13:30 LES AMIS CYCLOS DE L'ARDRESIS 12,438 04:49
252 340 ARBLAY BERTRAND 00:43:26 V1M 83 00:13:31 00:11:30 TEAM TRAIL OPALE 12,433 04:50
253 126 LEGRAND ALEXIS 00:43:27 SEM 88 00:13:32 00:13:32 12,428 04:50
254 141 LAGACHE STEPHANE 00:43:27 V1M 84 00:13:32 00:11:31 12,428 04:50
255 325 LEGRAND JEREMY 00:43:28 SEM 89 00:13:33 00:13:33 - 12,423 04:50
256 337 ALVES DOS SANTOS ROMUALD 00:43:30 V1M 85 00:13:35 00:11:34 - 12,414 04:50
257 745 JOUGLEUX THIBAULT 00:43:33 JUM 8 00:13:38 00:08:35 - 12,400 04:50
258 4 SZCZECH SORET F.xavier Camille 00:43:38 DUX 16 00:13:43 00:07:39 Crossfit-team 12,376 04:51
259 464 GIGADEN FRANCK 00:43:39 V1M 86 00:13:44 00:11:43 EXTREM TEAM 12,371 04:51
260 476 DUREZ-NION ANGELIQUE 00:43:42 V1F 10 00:13:47 00:06:47 TEAM GRAVELINES TRAIL 12,357 04:51
261 95 LOORIUS PATRICK 00:43:43 V3M 6 00:13:48 00:03:51 - 12,352 04:51
262 94 LOORIUS LOIC 00:43:43 SEM 90 00:13:48 00:13:48 - 12,352 04:51
263 419 FORTIN LUDOVIC 00:43:49 SEM 91 00:13:54 00:13:54 LE DRAPEAU 12,324 04:52
264 504 BERTOUT THIERRY 00:43:50 V2M 33 00:13:55 00:09:21 - 12,319 04:52
265 729 PITTEN JOANNE 00:43:53 V1F 11 00:13:58 00:06:58 LE DRAPEAU 12,305 04:53
266 422 HANON JEAN-PIERRE 00:43:53 V3M 7 00:13:58 00:04:01 LE DRAPEAU 12,305 04:53
267 181 DOURLENS OLIVIER 00:43:54 V1M 87 00:13:59 00:11:58 - 12,301 04:53
268 760 PINTO KEVIN 00:43:55 SEM 92 00:14:00 00:14:00 12,296 04:53
269 634 DEKEISTER THEOPHILE 00:43:56 CAM 7 00:14:01 00:12:32 12,291 04:53
270 555 DAMIENS PHILIPPE 00:43:56 V1M 88 00:14:01 00:12:00 - 12,291 04:53
271 637 DEBOVE DAVID 00:43:58 V1M 89 00:14:03 00:12:02 C.S. NESLES 12,282 04:53
272 183 CUVELLIER PHILIPPE 00:43:59 V2M 34 00:14:04 00:09:30 COURIR A GRAVELINES 12,277 04:53
273 199 AGEZ David 00:44:08 V1M 90 00:14:13 00:12:12 AS MARCK 12,236 04:54
274 497 ALBA ALEXANDRE 00:44:10 SEM 93 00:14:15 00:14:15 12,226 04:54
275 53 MONTANARI ERIC 00:44:10 V2M 35 00:14:15 00:09:41 - 12,226 04:54
276 462 CRETON RAPHAEL 00:44:10 V1M 91 00:14:15 00:12:14 12,226 04:54
277 673 BLOQUET STANISLAS 00:44:20 V1M 92 00:14:25 00:12:24 ATHLETISME CLUB OUTREAU 12,180 04:56
278 716 SENECHAL SEBASTIEN 00:44:20 V1M 93 00:14:25 00:12:24 ATHLETISME CLUB OUTREAU 12,180 04:56
279 705 MINARD MATTHIEU 00:44:20 V1M 94 00:14:25 00:12:24 ATHLETISME CLUB OUTREAU 12,180 04:56
280 695 LASSALLE PASCAL 00:44:20 V1M 95 00:14:25 00:12:24 ATHLETISME CLUB OUTREAU 12,180 04:56
281 776 COPPIN NICOLAS 00:44:20 V1M 96 00:14:25 00:12:24 ATHLETISME CLUB OUTREAU 12,180 04:56
282 798 LECAILLE LUDOVIC 00:44:20 SEM 94 00:14:25 00:14:25 COURIR DANS LE LUMBROIS 12,180 04:56
283 302 BAILLY JEROME 00:44:20 V1M 97 00:14:25 00:12:24 COURIR DANS LE LUMBROIS 12,180 04:56
284 461 DUQUENOY DAVID 00:44:21 V1M 98 00:14:26 00:12:25 JOGGING CLUB LICQUOIS 12,176 04:56
285 373 DELATTAIGNANT ARNAUD 00:44:21 V1M 99 00:14:26 00:12:25 - 12,176 04:56
286 651 DAGNEAUX FABIEN 00:44:24 V1M 100 00:14:29 00:12:28 12,162 04:56
287 509 BELLENGUEZ JULIEN 00:44:28 SEM 95 00:14:33 00:14:33 TRIATHLON CLUB BOULONNAIS 12,144 04:56
288 712 RENARD JULIEN 00:44:28 V1M 101 00:14:33 00:12:32 ATHLETISME CLUB OUTREAU 12,144 04:56
289 136 BRIDAULT JEAN FRANCOIS 00:44:33 SEM 96 00:14:38 00:14:38 12,121 04:57
290 518 BERQUEZ MICHEL 00:44:33 V1M 102 00:14:38 00:12:37 ATHLETIQUE CLUB CAPELLOIS 12,121 04:57
291 413 CAUDOUX PATRICK 00:44:35 V2M 36 00:14:40 00:10:06 LE DRAPEAU 12,112 04:57
292 24 CHAUCHOY BIASSE Olivier Marie-odile 00:44:35 DUX 17 00:14:40 00:08:36 Colembert 12,112 04:57
293 406 BAILLIEU ROSELINE 00:44:37 SEF 8 00:14:42 00:08:35 LE DRAPEAU 12,103 04:57
294 172 MADEC JEAN-PHILIPPE 00:44:38 V2M 37 00:14:43 00:10:09 PHILIPPIDES TEMPLEUVE 12,099 04:58
295 21 LEBON NOEL Carla Lucas 00:44:38 DUX 18 00:14:43 00:08:39 Athletic Club Capellois 12,099 04:58
296 372 SKORY MATHIEU 00:44:39 SEM 97 00:14:44 00:14:44 12,094 04:58
297 635 LABOURDETTE SEBASTIEN 00:44:40 V1M 103 00:14:45 00:12:44 12,090 04:58
298 69 GRESSIER OLIVIER 00:44:40 V2M 38 00:14:45 00:10:11 FREVENT OLYMPIC CLUB 12,090 04:58
299 656 MORTIER ROMAIN 00:44:43 SEM 98 00:14:48 00:14:48 - 12,076 04:58
300 334 FAIT JEAN-PHI 00:44:45 V1M 104 00:14:50 00:12:49 TOUQUET TRAIL NATURE 12,067 04:58
301 217 DECRIEM ERIC 00:44:48 V2M 39 00:14:53 00:10:19 12,054 04:59
302 264 GAVOIS JIMMY 00:44:49 V1M 105 00:14:54 00:12:53 PATRIOTES CROSS DE GUINES 12,049 04:59
303 414 CHOUROT LUCIEN 00:44:50 V3M 8 00:14:55 00:04:58 LE DRAPEAU 12,045 04:59
304 404 APHERVE REGIS 00:44:54 V1M 106 00:14:59 00:12:58 LE DRAPEAU 12,027 04:59
305 452 EVRARD CHRISTOPHE 00:44:54 V1M 107 00:14:59 00:12:58 COURIR DANS LE LUMBROIS 12,027 04:59
306 388 SENECHAL XAVIER 00:44:56 V2M 40 00:15:01 00:10:27 PATRIOTES DE GUINES 12,018 05:00
307 471 JEANDEL ARNAUD 00:44:56 SEM 99 00:15:01 00:15:01 - 12,018 05:00
308 305 STEVENART MICHEL 00:44:56 V2M 41 00:15:01 00:10:27 COURIR DANS LE LUMBROIS 12,018 05:00
309 538 NORMANT ALAIN 00:45:00 V2M 42 00:15:05 00:10:31 ATHLETIQUE CLUB CAPELLOIS 12,000 05:00
310 348 REGNIER VINCENT 00:45:02 V1M 108 00:15:07 00:13:06 - 11,991 05:00
311 430 NAJMI AICHA 00:45:03 V1F 12 00:15:08 00:08:08 LE DRAPEAU 11,987 05:00
312 244 GUISSE SEBASTIEN 00:45:04 V1M 109 00:15:09 00:13:08 11,982 05:00
313 426 MARIETTE YVETTE 00:45:07 V2F 2 00:15:12 00:03:40 LE DRAPEAU 11,969 05:01
314 190 FABRE BERTRAND 00:45:08 V2M 43 00:15:13 00:10:39 RIO TINTO 11,965 05:01
315 711 PODEVIN JEAN-PIERRE 00:45:09 V2M 44 00:15:14 00:10:40 ATHLETISME CLUB OUTREAU 11,960 05:01
316 741 VAILLANT PATRICE 00:45:12 V2M 45 00:15:17 00:10:43 TEAM TERNOIS 11,947 05:01
317 112 SOUDAIN MATTHIEU 00:45:14 SEM 100 00:15:19 00:15:19 11,938 05:02
318 115 SABLON EMMANUEL 00:45:15 V1M 110 00:15:20 00:13:19 PATRIOTES CROSS DE GUINES 11,934 05:02
319 771 JUSTIN CEDRIC 00:45:15 SEM 101 00:15:20 00:15:20 11,934 05:02
320 182 HAGNERE WILLY 00:45:15 V1M 111 00:15:20 00:13:19 - 11,934 05:02
321 105 BELLEC JOHANN 00:45:16 V1M 112 00:15:21 00:13:20 - 11,929 05:02
322 681 CRETON FABRICE 00:45:19 V1M 113 00:15:24 00:13:23 ATHLETISME CLUB OUTREAU 11,916 05:02
323 758 THIBAUT OLIVIER 00:45:21 SEM 102 00:15:26 00:15:26 11,907 05:02
324 517 BLARET LAURENT 00:45:21 V2M 46 00:15:26 00:10:52 ATHLETIQUE CLUB CAPELLOIS 11,907 05:02
325 453 LEGRAND PATRICE 00:45:22 V3M 9 00:15:27 00:05:30 R.C. BLENDECQUES 11,903 05:02
326 849 LEBON RUDY 00:45:22 V1M 114 00:15:27 00:13:26 ATHLETIQUE CLUB CAPELLOIS 11,903 05:02
327 353 LEROY FREDERIC 00:45:24 SEM 103 00:15:29 00:15:29 - 11,894 05:03
328 802 WACOGNE STEPHANIE 00:45:27 SEF 9 00:15:32 00:09:25 - 11,881 05:03
329 786 PETIT ALEXIS 00:45:28 SEM 104 00:15:33 00:15:33 11,877 05:03
330 519 BREQUEVILLE LIONEL 00:45:32 V1M 115 00:15:37 00:13:36 ATHLETIQUE CLUB CAPELLOIS 11,859 05:04
331 450 BUTEL FRANCOIS 00:45:32 V1M 116 00:15:37 00:13:36 11,859 05:04
332 575 LOEUILLIEUX BERTRAND 00:45:34 V3M 10 00:15:39 00:05:42 AMICALE HOSPITALIERS BOULOGNE 11,851 05:04
333 478 RAY SAMUEL 00:45:35 V1M 117 00:15:40 00:13:39 - 11,846 05:04
334 714 ROBERT DAVID 00:45:35 V1M 118 00:15:40 00:13:39 ATHLETISME CLUB OUTREAU 11,846 05:04
335 421 HACQUEL MICHEL 00:45:35 V2M 47 00:15:40 00:11:06 LE DRAPEAU 11,846 05:04
336 580 COUVREUR VERONIQUE 00:45:36 V1F 13 00:15:41 00:08:41 11,842 05:04
337 666 LIENARD AMANDINE 00:45:40 CAF 1 00:15:45 00:00:00 WIMEREUX RUNNING CLUB 11,825 05:04
338 792 STASZEWSKI FRANCK 00:45:41 V1M 119 00:15:46 00:13:45 - 11,821 05:05
339 609 DELVOYE LUC 00:45:44 V2M 48 00:15:49 00:11:15 COLEMBERT 11,808 05:05
340 146 MOUSSAY EMILIE 00:45:46 SEF 10 00:15:51 00:09:44 TEAM GRAVELINES TRAIL 11,799 05:05
341 196 COINON CHRISTOPHE 00:45:48 SEM 105 00:15:53 00:15:53 NON LICENCIE 11,790 05:05
342 296 GERVAIS SEBASTIEN 00:45:50 SEM 106 00:15:55 00:15:55 11,782 05:06
343 228 DOYER ERIC 00:45:50 V1M 120 00:15:55 00:13:54 AS MARCK 11,782 05:06
344 290 LAURENT JOCELYN 00:45:50 V2M 49 00:15:55 00:11:21 CULTURE DANSE ETAPLES 11,782 05:06
345 784 HERMANN Christian 00:45:52 V2M 50 00:15:57 00:11:23 - 11,773 05:06
346 93 CLEMENT FABIEN 00:45:53 SEM 107 00:15:58 00:15:58 - 11,769 05:06
347 614 PLAYE FRANCOIS 00:45:58 V2M 51 00:16:03 00:11:29 COLEMBERT 11,748 05:06
348 503 DUHAMEL VINCENT 00:45:58 V1M 121 00:16:03 00:14:02 - 11,748 05:06
349 510 PAVY DAVID 00:45:59 V1M 122 00:16:04 00:14:03 - 11,743 05:07
350 488 BOLLENGIER CHRISTOPHE 00:45:59 V2M 52 00:16:04 00:11:30 ASL 11,743 05:07
351 226 SAINT-MAXENT VALENTIN 00:46:00 SEM 108 00:16:05 00:16:05 11,739 05:07
352 88 BOIDIN DENIS 00:46:02 V1M 123 00:16:07 00:14:06 TEAM TRAIL OPALE TTO 11,731 05:07
353 221 JOUSSE PASCAL 00:46:03 V2M 53 00:16:08 00:11:34 NON LICENCIE 11,726 05:07
354 691 HANQUEZ DOROTHEE 00:46:04 SEF 11 00:16:09 00:10:02 ATHLETISME CLUB OUTREAU 11,722 05:07
355 397 HIARD ANDRE 00:46:05 V3M 11 00:16:10 00:06:13 SPORT PLUS 11,718 05:07
356 756 LIENARD ANTHONY 00:46:08 JUM 9 00:16:13 00:11:10 WIMEREUX RUNNING CLUB 11,705 05:08
357 387 GUILLEMANT VINCENT 00:46:08 SEM 109 00:16:13 00:16:13 T2CAPATHLON 11,705 05:08
358 742 BOCHU MICHEL 00:46:10 V2M 54 00:16:15 00:11:41 TEAM TERNOIS 11,697 05:08
359 175 DULAC FABRICE 00:46:10 V1M 124 00:16:15 00:14:14 - 11,697 05:08
360 375 GAMBLIN VIRGINIE 00:46:11 SEF 12 00:16:16 00:10:09 FOULEES LOONOISES 11,693 05:08
361 427 MASZOTA DARIA 00:46:12 SEF 13 00:16:17 00:10:10 LE DRAPEAU 11,688 05:08
362 553 VIGREUX EDDY 00:46:18 V1M 125 00:16:23 00:14:22 11,663 05:09
363 298 TREMBLAY BEATRICE 00:46:19 V1F 14 00:16:24 00:09:24 - 11,659 05:09
364 703 MAILLOT JEAN-LOUIS 00:46:20 V2M 55 00:16:25 00:11:51 ATHLETISME CLUB OUTREAU 11,655 05:09
365 97 DESCHARLES DAVID 00:46:20 V2M 56 00:16:25 00:11:51 - 11,655 05:09
366 788 HAIDAR NAEF 00:46:20 V2M 57 00:16:25 00:11:51 NON LICENCIE 11,655 05:09
367 123 TISSERAND XAVIER 00:46:21 V2M 58 00:16:26 00:11:52 - 11,650 05:09
368 692 HOCQ BRUNO 00:46:25 V2M 59 00:16:30 00:11:56 ATHLETISME CLUB OUTREAU 11,634 05:09
369 312 DUFRENNE FREDERIC 00:46:31 V1M 126 00:16:36 00:14:35 11,609 05:10
370 709 NAVET SEBASTIEN 00:46:34 V2M 60 00:16:39 00:12:05 ATHLETISME CLUB OUTREAU 11,596 05:10
371 755 GODARD PASCAL 00:46:35 V1M 127 00:16:40 00:14:39 XTREME TEAM 11,592 05:11
372 752 GIGADEN EDDY 00:46:35 V1M 128 00:16:40 00:14:39 - 11,592 05:11
373 385 COTTIN JOHNNY 00:46:35 SEM 110 00:16:40 00:16:40 11,592 05:11
374 256 LECOUFFE AMANDINE 00:46:36 SEF 14 00:16:41 00:10:34 PATRIOTES CROSS DE GUINES 11,588 05:11
375 528 HOLUIGUE FREDERIC 00:46:41 V1M 129 00:16:46 00:14:45 ATHLETIQUE CLUB CAPELLOIS 11,567 05:11
376 540 OVION SYLVESTRE 00:46:41 V1M 130 00:16:46 00:14:45 ATHLETIQUE CLUB CAPELLOIS 11,567 05:11
377 610 DETHOOR DOMINIQUE 00:46:42 V2M 61 00:16:47 00:12:13 COLEMBERT 11,563 05:11
378 442 DEBAY MARINE 00:46:42 SEF 15 00:16:47 00:10:40 AVOC 11,563 05:11
379 222 GOURNAY VALENTIN 00:46:43 SEM 111 00:16:48 00:16:48 11,559 05:11
380 512 PACE YVES 00:46:45 V2M 62 00:16:50 00:12:16 - 11,551 05:12
381 303 LAMORILLE JEREMIE 00:46:45 SEM 112 00:16:50 00:16:50 11,551 05:12
382 685 DELANNOY AURELIE 00:46:48 SEF 16 00:16:53 00:10:46 ATHLETISME CLUB OUTREAU 11,538 05:12
383 350 GORGE ALEXANDRE 00:46:50 V1M 131 00:16:55 00:14:54 11,530 05:12
384 495 DEFRANCQ LUCIE 00:46:52 SEF 17 00:16:57 00:10:50 ASL 11,522 05:12
385 229 LEGROS MATHIEU 00:46:52 SEM 113 00:16:57 00:16:57 A.S. MARCK 11,522 05:12
386 458 DEFRANCQ REMI 00:46:53 SEM 114 00:16:58 00:16:58 X2POP 11,518 05:13
387 559 LACROIX EMERICK 00:46:55 SEM 115 00:17:00 00:17:00 - 11,510 05:13
388 565 DHIEUX REMI 00:46:56 SEM 116 00:17:01 00:17:01 11,506 05:13
389 684 DAUTREVAUX DAVID 00:46:58 V1M 132 00:17:03 00:15:02 ATHLETISME CLUB OUTREAU 11,498 05:13
390 593 BOULANGER LILIANE 00:47:02 V1F 15 00:17:07 00:10:07 A.S. MARCK 11,481 05:14
391 596 LEGROS MANUEL 00:47:03 V1M 133 00:17:08 00:15:07 SO CALAIS 11,477 05:14
392 151 GADEBLED CHRISTOPHE 00:47:03 V2M 63 00:17:08 00:12:34 - 11,477 05:14
393 836 NEVEU PAMELA 00:47:03 SEF 18 00:17:08 00:11:01 ATHLETISME CLUB OUTREAU 11,477 05:14
394 113 MISEROLLE MATTHIEU 00:47:04 SEM 117 00:17:09 00:17:09 NON LICENCIE 11,473 05:14
395 525 GOLLIOT AURELIEN 00:47:08 SEM 118 00:17:13 00:17:13 ATHLETIQUE CLUB CAPELLOIS 11,457 05:14
396 301 BAILLY AURELIE 00:47:12 V1F 16 00:17:17 00:10:17 COURIR DANS LE LUMBROIS 11,441 05:15
397 799 CALMELS NICOLAS 00:47:16 SEM 119 00:17:21 00:17:21 - 11,425 05:15
398 800 FLAHAUT GREGORY 00:47:16 V1M 134 00:17:21 00:15:20 - 11,425 05:15
399 785 LEPECUCHELLE Julien 00:47:16 SEM 120 00:17:21 00:17:21 - 11,425 05:15
400 546 CRESSON XAVIER 00:47:16 V2M 64 00:17:21 00:12:47 S/L MARQUISE A 11,425 05:15
401 633 LAPIERRE CATHY 00:47:18 SEF 19 00:17:23 00:11:16 A.S. MARCK 11,416 05:15
402 292 MAHIEUX JEAN-LUC 00:47:18 V2M 65 00:17:23 00:12:49 - 11,416 05:15
403 331 LELIEVRE CHRISTELLE 00:47:19 V1F 17 00:17:24 00:10:24 TRIATHLON CLUB DE MONTREUIL 11,412 05:15
404 532 LANGLOIS FREDERIC 00:47:22 V1M 135 00:17:27 00:15:26 ATHLETIQUE CLUB CAPELLOIS 11,400 05:16
405 539 REGNIER CHRISTINE 00:47:22 V2F 3 00:17:27 00:05:55 ATHLETIQUE CLUB CAPELLOIS 11,400 05:16
406 683 DANDRE CORALIE 00:47:24 SEF 20 00:17:29 00:11:22 ATHLETISME CLUB OUTREAU 11,392 05:16
407 762 PRUDHOMME SYLVAIN 00:47:28 SEM 121 00:17:33 00:17:33 11,376 05:16
408 281 CARBONNIER MADELINE 00:47:28 SEF 21 00:17:33 00:11:26 PATRIOTE CROSS DE GUINES 11,376 05:16
409 757 MAES DOMINIQUE 00:47:31 V2M 66 00:17:36 00:13:02 Saint Venant 11,364 05:17
410 186 LEMAN GERARD 00:47:40 V2M 67 00:17:45 00:13:11 DRUCAT TOUTES JAMBES 11,329 05:18
411 227 FATIER ODILE 00:47:40 V1F 18 00:17:45 00:10:45 AMICALE DU VAL DE SOMME 11,329 05:18
412 216 JUSTIN LUCIEN 00:47:41 V4M 1 00:17:46 00:00:00 - 11,325 05:18
413 76 WACQUET MAXIME 00:47:42 SEM 122 00:17:47 00:17:47 11,321 05:18
414 475 LHERMILLIER FREDDY 00:47:43 V3M 12 00:17:48 00:07:51 TOUQUET OPALE ATHLETISME 11,317 05:18
415 646 DEGROOTE MAGGY 00:47:44 V1F 19 00:17:49 00:10:49 11,313 05:18
416 432 ROGEE CHRISTELLE 00:47:44 V1F 20 00:17:49 00:10:49 LE DRAPEAU 11,313 05:18
417 138 CADART NICOLAS 00:47:44 SEM 123 00:17:49 00:17:49 - 11,313 05:18
418 98 GOURLAIN MATHILDE 00:47:44 SEF 22 00:17:49 00:11:42 11,313 05:18
419 730 MUGUET ROMAIN 00:47:45 SEM 124 00:17:50 00:17:50 - 11,309 05:18
420 369 GRESSIER PHILIPPE 00:47:45 V2M 68 00:17:50 00:13:16 SAINT MARTIN ATHLETISME 11,309 05:18
421 96 QUENEHEN JEREMY 00:47:46 SEM 125 00:17:51 00:17:51 - 11,305 05:18
422 653 CLEMENT STEPHANE 00:47:46 V1M 136 00:17:51 00:15:50 A.S. MARCK 11,305 05:18
423 708 NAVET FLORENCE 00:47:53 V1F 21 00:17:58 00:10:58 ATHLETISME CLUB OUTREAU 11,277 05:19
424 16 FLAHAUT FLAHAUT Fredric Stessy 00:47:53 DUX 19 00:17:58 00:11:54 Le Drapeau 11,277 05:19
425 198 DEGRAVE PATRICK 00:47:54 V3M 13 00:17:59 00:08:02 COURIR A GRAVELINES 11,273 05:19
426 64 GRAVELINES THIERRY 00:48:01 V1M 137 00:18:06 00:16:05 11,246 05:20
427 180 CHERMEUX HERVE 00:48:04 V3M 14 00:18:09 00:08:12 11,234 05:20
428 641 MONTADOR OLIVIER 00:48:06 V1M 138 00:18:11 00:16:10 - 11,227 05:21
429 116 GRENON ERIC 00:48:06 V1M 139 00:18:11 00:16:10 - 11,227 05:21
430 535 NOEL AURELIEN 00:48:06 JUM 10 00:18:11 00:13:08 ATHLETIQUE CLUB CAPELLOIS 11,227 05:21
431 522 DELETOILLE JULIEN 00:48:07 SEM 126 00:18:12 00:18:12 ATHLETIQUE CLUB CAPELLOIS 11,223 05:21
432 356 MALFOY JEAN-PIERRE 00:48:09 V3M 15 00:18:14 00:08:17 SAINT MARTIN ATHLETISME 11,215 05:21
433 351 ROUJOL CHARLES ELIE 00:48:10 SEM 127 00:18:15 00:18:15 11,211 05:21
434 636 FEUTRY GUILLAUME 00:48:11 SEM 128 00:18:16 00:18:16 - 11,207 05:21
435 480 DHERBECOURT YVES 00:48:11 V3M 16 00:18:16 00:08:19 11,207 05:21
436 753 CONDETTE FREDERIC 00:48:12 V1M 140 00:18:17 00:16:16 - 11,203 05:21
437 492 CHARLES AURELIE 00:48:14 SEF 23 00:18:19 00:12:12 ASL 11,196 05:22
438 192 LESOT OLIVIER 00:48:24 V1M 141 00:18:29 00:16:28 - 11,157 05:23
439 240 RAMET MATTHIEU 00:48:25 SEM 129 00:18:30 00:18:30 11,153 05:23
440 384 GUYOT CEDRIC 00:48:26 SEM 130 00:18:31 00:18:31 11,149 05:23
441 466 OUART CHRISTOPHE 00:48:26 V1M 142 00:18:31 00:16:30 PATRIOTES CROSS DE GUINES 11,149 05:23
442 663 HORST ARNE 00:48:27 V1M 143 00:18:32 00:16:31 WIMEREUX RUNNING CLUB 11,146 05:23
443 309 DELEGLISE GWENAELLE 00:48:27 SEF 24 00:18:32 00:12:25 COURIR DANS LE LUMBROIS 11,146 05:23
444 547 ROCK GEOFFREY 00:48:30 SEM 131 00:18:35 00:18:35 S/L MARQUISE A 11,134 05:23
445 423 HANON LILIANE 00:48:32 V3F 1 00:18:37 00:00:00 LE DRAPEAU 11,126 05:24
446 110 BEAUGRAND FABRICE 00:48:35 V1M 144 00:18:40 00:16:39 - 11,115 05:24
447 294 DOSSCHE PATRICK 00:48:39 V3M 17 00:18:44 00:08:47 - 11,100 05:24
448 731 BLEUSEZ MELANIE 00:48:39 V1F 22 00:18:44 00:11:44 TOUQUET TRAIL NATURE 11,100 05:24
449 564 BENARD ADELINE 00:48:40 SEF 25 00:18:45 00:12:38 - 11,096 05:24
450 560 MASSET TONY 00:48:41 V1M 145 00:18:46 00:16:45 - 11,092 05:25
451 445 CHARTAUX SUZEL 00:48:45 V1F 23 00:18:50 00:11:50 CS NESLES 11,077 05:25
452 317 FOUCAULT PASCAL 00:48:45 V2M 69 00:18:50 00:14:16 CULTURE DANSE ETAPLES 11,077 05:25
453 554 CHARTAUX RAPHAEL 00:48:46 V2M 70 00:18:51 00:14:17 TOUQUET OPALE ATHLETISME 11,073 05:25
454 790 RINGOT NICOLAS 00:48:48 SEM 132 00:18:53 00:18:53 - 11,066 05:25
455 344 AUBERT MAGALI 00:48:55 V1F 24 00:19:00 00:12:00 PATRIOTES CROSS DE GUINES 11,039 05:26
456 220 DOUBLECOURT CLAUDE 00:49:06 SEM 133 00:19:11 00:19:11 - 10,998 05:27
457 726 TERNISIEN SEBASTIEN 00:49:09 V1M 146 00:19:14 00:17:13 CE PORT DE CALAIS 10,987 05:28
458 152 GOUT STEPHANE 00:49:11 SEM 134 00:19:16 00:19:16 10,979 05:28
459 549 MATHON LUCIE 00:49:15 SEF 26 00:19:20 00:13:13 S/L MARQUISE A 10,964 05:28
460 327 LACHEVRE CHRISTINE 00:49:15 V2F 4 00:19:20 00:07:48 COURIR A GRAVELINES 10,964 05:28
461 576 AVISSE SEBASTIEN 00:49:16 V1M 147 00:19:21 00:17:20 AMICALE HOSPITALIERS BOULOGNE 10,961 05:28
462 625 LELEU GABRIEL 00:49:16 V1M 148 00:19:21 00:17:20 BOULOGNE ATHLETIQUE CLUB 10,961 05:28
463 400 LANCE BENJAMIN 00:49:20 SEM 135 00:19:25 00:19:25 SPORT PLUS 10,946 05:29
464 647 REY JENNIFER 00:49:20 SEF 27 00:19:25 00:13:18 - 10,946 05:29
465 848 SEGUIN DIDIER 00:49:23 V2M 71 00:19:28 00:14:54 NL 10,935 05:29
466 660 DUBRULLE VIRGINIE 00:49:23 V1F 25 00:19:28 00:12:28 WIMEREUX RUNNING CLUB 10,935 05:29
467 386 MARTEL ERIC 00:49:23 V2M 72 00:19:28 00:14:54 TEAM TRAIL 62 10,935 05:29
468 159 DEPOORTER ERIC 00:49:25 V2M 73 00:19:30 00:14:56 CACB 10,927 05:29
469 77 ARDAEN GINO 00:49:30 V1M 149 00:19:35 00:17:34 - 10,909 05:30
470 597 LEBRUN CAROLINE 00:49:33 V1F 26 00:19:38 00:12:38 SO CALAIS 10,898 05:30
471 621 HORNAIN FABRICE 00:49:35 V1M 150 00:19:40 00:17:39 BOULOGNE ATHLETIQUE CLUB 10,891 05:31
472 437 FODZO ERIC 00:49:36 V1M 151 00:19:41 00:17:40 10,887 05:31
473 251 DESOOMER BENOIT 00:49:38 V2M 74 00:19:43 00:15:09 NON LICENCIE 10,880 05:31
474 367 FOUCHER MICHEL 00:49:39 V1M 152 00:19:44 00:17:43 SAINT MARTIN ATHLETISME 10,876 05:31
475 145 BLARY LUCIE 00:49:40 SEF 28 00:19:45 00:13:38 LNA 10,872 05:31
476 101 BAY FREDERIC 00:49:41 V1M 153 00:19:46 00:17:45 - 10,869 05:31
477 693 JUMETZ REGINE 00:49:42 V3F 2 00:19:47 00:01:10 ATHLETISME CLUB OUTREAU 10,865 05:31
478 780 PERSYN JEAN 00:49:45 V4M 2 00:19:50 00:02:04 Courir Canton de Cassel 10,854 05:32
479 268 ARGENTIN ANTOINE 00:49:45 JUM 11 00:19:50 00:14:47 0 10,854 05:32
480 844 GUILLAMET FABIENNE 00:49:45 V1F 27 00:19:50 00:12:50 SPORT PLUS 10,854 05:32
481 782 TINTILLIER ERIC 00:49:46 V1M 154 00:19:51 00:17:50 - 10,851 05:32
482 456 MAZE BEATRICE 00:49:53 V1F 28 00:19:58 00:12:58 10,825 05:33
483 533 LEBON AUDREY 00:49:55 SEF 29 00:20:00 00:13:53 ATHLETIQUE CLUB CAPELLOIS 10,818 05:33
484 843 DECOTTE GERARD 00:49:55 V2M 75 00:20:00 00:15:26 SPORT PLUS 10,818 05:33
485 103 GOUDAL NATHALIE 00:49:57 V2F 5 00:20:02 00:08:30 A.S. MARCK 10,811 05:33
486 189 LARDE VIRGINIE 00:50:00 SEF 30 00:20:05 00:13:58 10,800 05:33
487 188 CLABAUT FRANCOIS 00:50:00 SEM 136 00:20:05 00:20:05 - 10,800 05:33
488 396 DENIS CORINNE 00:50:01 V2F 6 00:20:06 00:08:34 SPORT PLUS 10,796 05:33
489 308 PERARD LOETITIA 00:50:01 SEF 31 00:20:06 00:13:59 - 10,796 05:33
490 669 GOLLIOT THOMAS 00:50:05 SEM 137 00:20:10 00:20:10 - 10,782 05:34
491 687 DEREEP YANNICK 00:50:06 V1M 155 00:20:11 00:18:10 ATHLETISME CLUB OUTREAU 10,778 05:34
492 10 PEYRAUD PEYRAUD Rudy Severine 00:50:06 DUX 20 00:20:11 00:14:07 10,778 05:34
493 701 LIBERT MARIE-FRANCE 00:50:09 V3F 3 00:20:14 00:01:37 ATHLETISME CLUB OUTREAU 10,768 05:34
494 439 POTIER JEAN-MARIE 00:50:14 V1M 156 00:20:19 00:18:18 - 10,750 05:35
495 417 FAUQUEMBERGUE PHILIPPE 00:50:16 V2M 76 00:20:21 00:15:47 LE DRAPEAU 10,743 05:35
496 700 LIBERT ERIC 00:50:19 V3M 18 00:20:24 00:10:27 ATHLETISME CLUB OUTREAU 10,732 05:35
497 118 BRUNEL SEBASTIEN 00:50:21 SEM 138 00:20:26 00:20:26 - 10,725 05:36
498 605 LEDOUX PHILIPPE 00:50:25 SEM 139 00:20:30 00:20:30 - 10,711 05:36
499 487 MASSEMIN JEAN-MARIE 00:50:27 V2M 77 00:20:32 00:15:58 ASL 10,704 05:36
500 485 BOLLENGIER LAURENT 00:50:28 V1M 157 00:20:33 00:18:32 ASL 10,700 05:36
501 75 VERRIELE OMERINE 00:50:31 CAF 2 00:20:36 00:04:51 10,690 05:37
502 73 VERRIELE ZELIE 00:50:32 JUF 1 00:20:37 00:00:00 NON LICENCIE 10,686 05:37
503 578 DEHONDT THIERRY 00:50:33 V1M 158 00:20:38 00:18:37 - 10,682 05:37
504 185 FLAQUET RENE 00:50:33 V3M 19 00:20:38 00:10:41 DRUCAT TOUTES JAMBES 10,682 05:37
505 127 CLERBOUT MARC 00:50:34 V2M 78 00:20:39 00:16:05 RC BLENDECQUES 10,679 05:37
506 658 COEUR CECILE 00:50:34 V1F 29 00:20:39 00:13:39 WIMEREUX RUNNING CLUB 10,679 05:37
507 483 FOULON NATHALIE 00:50:35 V1F 30 00:20:40 00:13:40 LES EVADES 10,675 05:37
508 563 BELLEVILLE VALERIE 00:50:37 V2M 79 00:20:42 00:16:08 10,668 05:37
509 676 BOULET-NEGRI PASCALE 00:50:41 V1F 31 00:20:46 00:13:46 ATHLETISME CLUB OUTREAU 10,654 05:38
510 734 BERTIN AUBIN 00:50:47 SEM 140 00:20:52 00:20:52 - 10,633 05:39
511 364 SAILLY KARINE 00:50:47 V1F 32 00:20:52 00:13:52 SAINT MARTIN ATHLETISME 10,633 05:39
512 160 DECONINCK BRUNO 00:50:47 V2M 80 00:20:52 00:16:18 CACB 10,633 05:39
513 355 LELONG STEPHANE 00:50:47 V1M 159 00:20:52 00:18:51 SAINT MARTIN ATHLETISME 10,633 05:39
514 370 DANGER AURELIA 00:50:49 SEF 32 00:20:54 00:14:47 SAINT MARTIN ATHLETISME 10,626 05:39
515 265 CARBONNIER SEBASTIEN 00:50:49 V1M 160 00:20:54 00:18:53 PATRIOTES CROSS DE GUINES 10,626 05:39
516 54 PRUDHOMME JULIE 00:50:49 SEF 33 00:20:54 00:14:47 - 10,626 05:39
517 793 CHOCHOIS PATRICK 00:50:51 V2M 81 00:20:56 00:16:22 - 10,619 05:39
518 440 BRUNET DENIS 00:50:53 V3M 20 00:20:58 00:11:01 JOGGING CLUB LICQUOIS 10,613 05:39
519 567 HENNEBEL LUC 00:51:00 V2M 82 00:21:05 00:16:31 AMICALE HOSPITALIERS BOULOGNE 10,588 05:40
520 339 BRUTIER LAURENT 00:51:01 V1M 161 00:21:06 00:19:05 NON LICENCIE 10,585 05:40
521 239 BAYART THIERRY 00:51:03 V2M 83 00:21:08 00:16:34 JOG ASSAD RIO TINTO 10,578 05:40
522 100 BEAUMER GUILLAUME 00:51:09 V1M 162 00:21:14 00:19:13 - 10,557 05:41
523 531 HOLUIGUE VIRGINIE 00:51:10 V1F 33 00:21:15 00:14:15 ATHLETIQUE CLUB CAPELLOIS 10,554 05:41
524 193 BOURGAIN DAVID 00:51:11 V1M 163 00:21:16 00:19:15 - 10,550 05:41
525 179 DUHAMEL THIERRY 00:51:15 V2M 84 00:21:20 00:16:46 10,537 05:42
526 544 NOWICK LAETITIA 00:51:17 V1F 34 00:21:22 00:14:22 S/L MARQUISE A 10,530 05:42
527 122 CONDETTE JEAN-LUC 00:51:18 V3M 21 00:21:23 00:11:26 - 10,526 05:42
528 545 MARTY VALERY 00:51:20 V1F 35 00:21:25 00:14:25 S/L MARQUISE A 10,519 05:42
529 33 BONNTEAUX XX MARINE XX 00:51:23 DUX 21 00:21:28 00:15:24 10,509 05:43
530 520 CLEMENT RAYMOND 00:51:29 V1M 164 00:21:34 00:19:33 ATHLETIQUE CLUB CAPELLOIS 10,489 05:43
531 66 PIDOU HERVE 00:51:30 V3M 22 00:21:35 00:11:38 - 10,485 05:43
532 155 BOULLET SYLVIE 00:51:31 V2F 7 00:21:36 00:10:04 CACB 10,482 05:43
533 496 LEPREUX ELISABETH 00:51:38 SEF 34 00:21:43 00:15:36 ASL 10,458 05:44
534 242 DESCAMPS ELODIE 00:51:43 SEF 35 00:21:48 00:15:41 - 10,442 05:45
535 241 DESCAMPS CHRISTOPHE 00:51:43 V2M 85 00:21:48 00:17:14 - 10,442 05:45
536 13 BOUTIN BILLIET Faustine Adrien 00:51:44 DUX 22 00:21:49 00:15:45 Ad&Faust 10,438 05:45
537 178 BUNIET OLIVIA 00:51:48 V1F 36 00:21:53 00:14:53 COURIR A GRAVELINES 10,425 05:45
538 468 POULY TONY 00:51:48 SEM 141 00:21:53 00:21:53 - 10,425 05:45
539 715 ROGERE KATY 00:51:48 V1F 37 00:21:53 00:14:53 ATHLETISME CLUB OUTREAU 10,425 05:45
540 261 SENECHAL MARIE-CHRISTINE 00:51:49 V2F 8 00:21:54 00:10:22 PATRIOTES CROSS DE GUINES 10,421 05:45
541 311 BODART ALEXIS 00:51:49 SEM 142 00:21:54 00:21:54 10,421 05:45
542 395 CHOCHOY THIERRY 00:51:51 V2M 86 00:21:56 00:17:22 SPORT PLUS 10,415 05:46
543 772 DACHICOURT LAETITIA 00:51:52 SEF 36 00:21:57 00:15:50 10,411 05:46
544 171 MADEC BARBARA 00:51:53 V2F 9 00:21:58 00:10:26 PHILIPPIDES TEMPLEUVE 10,408 05:46
545 581 GOLLIOT YANNICK 00:51:55 V2M 87 00:22:00 00:17:26 - 10,401 05:46
546 157 BOSQUET SOPHIE 00:51:57 SEF 37 00:22:02 00:15:55 CA COUDEKERQUE-BRANCHE 10,395 05:46
547 61 GODARD DAVID 00:51:59 V1M 165 00:22:04 00:20:03 10,388 05:47
548 541 SELLIER CHRISTOPHE 00:52:01 V1M 166 00:22:06 00:20:05 ATHLETIQUE CLUB CAPELLOIS 10,381 05:47
549 543 SELLIER DELPHINE 00:52:01 V1F 38 00:22:06 00:15:06 ATHLETIQUE CLUB CAPELLOIS 10,381 05:47
550 418 FAUQUEMBERGUE VERONIQUE 00:52:01 V2F 10 00:22:06 00:10:34 LE DRAPEAU 10,381 05:47
551 472 MAILLARD BEATRICE 00:52:04 V2F 11 00:22:09 00:10:37 - 10,371 05:47
552 629 DEPREZ NICOLAS 00:52:08 SEM 143 00:22:13 00:22:13 BOULOGNE ATHLETIQUE CLUB 10,358 05:48
553 374 DUHAMEL MIKAEL 00:52:10 V1M 167 00:22:15 00:20:14 10,351 05:48
554 778 BARBIER CORINNE 00:52:13 V2F 12 00:22:18 00:10:46 VAL DE SOMME 10,342 05:48
555 121 VELANOVSKI MICHEL 00:52:16 V1M 168 00:22:21 00:20:20 - 10,332 05:48
556 71 FLORENT THIERRY 00:52:19 V1M 169 00:22:24 00:20:23 - 10,322 05:49
557 191 MONTEUUIS DOMINIQUE 00:52:24 V3M 23 00:22:29 00:12:32 RIO TINTO 10,305 05:49
558 407 BARADEL MARC 00:52:26 V3M 24 00:22:31 00:12:34 LE DRAPEAU 10,299 05:50
559 455 EVRARD JEAN-MICHEL 00:52:26 V2M 88 00:22:31 00:17:57 10,299 05:50
560 291 LAURENT ISABELLE 00:52:32 V1F 39 00:22:37 00:15:37 CULTURE DANSE ETAPLES 10,279 05:50
561 60 GODARD SEVERINE 00:52:33 SEF 38 00:22:38 00:16:31 - 10,276 05:50
562 516 BERQUEZ KARINE 00:52:38 V1F 40 00:22:43 00:15:43 AC CAPELLOIS 10,260 05:51
563 746 LACROIX PERRINE 00:52:42 SEF 39 00:22:47 00:16:40 NON LICENCIE 10,247 05:51
564 295 GERVAIS PASCAL 00:52:42 V2M 89 00:22:47 00:18:13 10,247 05:51
565 523 FICHEUX FLAVIE 00:52:45 JUF 2 00:22:50 00:02:13 ATHLETIQUE CLUB CAPELLOIS 10,237 05:52
566 537 NOEL DAVID 00:52:46 V1M 170 00:22:51 00:20:50 ATHLETIQUE CLUB CAPELLOIS 10,234 05:52
567 606 SEVESTRE ANTOINE 00:52:46 SEM 144 00:22:51 00:22:51 NON LICENCIE 10,234 05:52
568 345 NAVET LAURENT 00:52:48 V1M 171 00:22:53 00:20:52 - 10,227 05:52
569 156 EVERAERT BERNARD 00:52:49 V3M 25 00:22:54 00:12:57 CACB 10,224 05:52
570 352 HUYNH KHIEM 00:52:49 SEM 145 00:22:54 00:22:54 10,224 05:52
571 573 BERANGER JEAN-CHARLES 00:52:50 V2M 90 00:22:55 00:18:21 AMICALE HOSPITALIERS BOULOGNE 10,221 05:52
572 399 HIARD ALEXIA 00:52:52 SEF 40 00:22:57 00:16:50 SPORT PLUS 10,214 05:52
573 847 MAJENE SANDY 00:52:52 V1F 41 00:22:57 00:15:57 ATHLETISME CLUB OUTREAU 10,214 05:52
574 659 DELCOURT THOMAS 00:52:52 SEM 146 00:22:57 00:22:57 WIMEREUX RUNNING CLUB 10,214 05:52
575 490 RECOURT LAURENT 00:52:56 V1M 172 00:23:01 00:21:00 ASL 10,202 05:53
576 194 MARIE RUDY 00:52:58 V1M 173 00:23:03 00:21:02 - 10,195 05:53
577 360 BONVOISIN MARIE 00:52:59 SEF 41 00:23:04 00:16:57 SAINT MARTIN ATHLETISME 10,192 05:53
578 133 LE ROLLAND ERIC 00:52:59 V1M 174 00:23:04 00:21:03 10,192 05:53
579 32 BRIDOUX DESEILLE SOIZIC GAUTIER 00:53:06 DUX 23 00:23:11 00:17:07 10,169 05:54
580 408 BEGUE AMELIE 00:53:07 SEF 42 00:23:12 00:17:05 LE DRAPEAU 10,166 05:54
581 81 DEBAS GERARD 00:53:20 V3M 26 00:23:25 00:13:28 - 10,125 05:56
582 479 BRUSSELLE LEO 00:53:23 SEM 147 00:23:28 00:23:28 - 10,116 05:56
583 696 LAVERDURE PASCAL 00:53:23 V2M 91 00:23:28 00:18:54 ATHLETISME CLUB OUTREAU 10,116 05:56
584 142 ISAERT PASCAL 00:53:23 V3M 27 00:23:28 00:13:31 COURIR A GRAVELINES 10,116 05:56
585 125 LAMIRAND CHRISTOPHE 00:53:33 V1M 175 00:23:38 00:21:37 - 10,084 05:57
586 638 LAVIE BETTY 00:53:37 V1F 42 00:23:42 00:16:42 TOUQUET TRAIL NATURE 10,071 05:57
587 494 LEFOLL DELPHINE 00:53:46 V1F 43 00:23:51 00:16:51 ASL 10,043 05:58
588 434 VERCOUTRE VINCENT 00:53:47 SEM 148 00:23:52 00:23:52 - 10,040 05:59
589 600 GARENAUX DOMINIQUE 00:53:49 V3M 28 00:23:54 00:13:57 10,034 05:59
590 365 MAGNIER BEATRICE 00:53:52 V2F 13 00:23:57 00:12:25 SAINT MARTIN ATHLETISME 10,025 05:59
591 702 LOUCHET AURELIE 00:53:53 V1F 44 00:23:58 00:16:58 ATHLETISME CLUB OUTREAU 10,022 05:59
592 671 BATTE ARNAUD 00:53:53 V1M 176 00:23:58 00:21:57 ATHLETISME CLUB OUTREAU 10,022 05:59
593 612 GARENAUX FREDERIC 00:53:57 V3M 29 00:24:02 00:14:05 COLEMBERT 10,009 06:00
594 86 BIGOT SYLVAIN 00:54:01 SEM 149 00:24:06 00:24:06 9,997 06:00
595 362 LANNOY NATHALIE 00:54:02 V1F 45 00:24:07 00:17:07 SAINT MARTIN ATHLETISME 9,994 06:00
596 299 CALMANT BEVERLEY 00:54:02 V1F 46 00:24:07 00:17:07 - 9,994 06:00
597 89 GUCHE RACHEL 00:54:04 V1F 47 00:24:09 00:17:09 9,988 06:00
598 598 MARLARD PASCALINE 00:54:14 V1F 48 00:24:19 00:17:19 NON LICENCIE 9,957 06:02
599 787 LHOMEL MURIELLE 00:54:16 V2F 14 00:24:21 00:12:49 LE DRAPEAU 9,951 06:02
600 170 SELINGUE THIERRY 00:54:26 V2M 92 00:24:31 00:19:57 COURIR A GRAVELINES 9,920 06:03
601 839 ANDRIEU JACQUES 00:54:28 V2M 93 00:24:33 00:19:59 - 9,914 06:03
602 22 MAQUINGHEN MAQUINGHEN Valerie Francois 00:54:29 DUX 24 00:24:34 00:18:30 CSLG Côte d'Opale Mère-fille 9,911 06:03
603 781 MASSON NATHALIE 00:54:36 V2F 15 00:24:41 00:13:09 - 9,890 06:04
604 592 HELLOT JIMMY 00:54:39 SEM 150 00:24:44 00:24:44 9,881 06:04
605 358 LECLERCQ ANNE-MARIE 00:54:40 V3F 4 00:24:45 00:06:08 SAINT MARTIN ATHLETISME 9,878 06:04
606 491 DAZIN JACQUELINE 00:54:50 V3F 5 00:24:55 00:06:18 ASL 9,848 06:06
607 361 CARON LYUBA 00:54:52 V3F 6 00:24:57 00:06:20 SAINT MARTIN ATHLETISME 9,842 06:06
608 850 LARUELLE CHRISTINE 00:54:53 V1F 49 00:24:58 00:17:58 0 9,839 06:06
609 743 BERTOUT INGRID 00:54:53 SEF 43 00:24:58 00:18:51 - 9,839 06:06
610 613 MAES ETIENNE 00:54:54 V3M 30 00:24:59 00:15:02 COLEMBERT 9,836 06:06
611 257 MAFUCCI LUDOVIC 00:54:55 V1M 177 00:25:00 00:22:59 PATRIOTES CROSS DE GUINES 9,833 06:06
612 230 PERSYN STEPHANE 00:55:01 V2M 94 00:25:06 00:20:32 - 9,815 06:07
613 368 MANSARD JEAN FRANCOIS 00:55:13 V1M 178 00:25:18 00:23:17 SAINT MARTIN ATHLETISME 9,780 06:08
614 521 DOGIMONT FLORENT 00:55:15 SEM 151 00:25:20 00:25:20 ATHLETIQUE CLUB CAPELLOIS 9,774 06:08
615 493 COLSON JACKY 00:55:16 V3M 31 00:25:21 00:15:24 ASL 9,771 06:08
616 611 DUSSART MURIEL 00:55:21 V3F 7 00:25:26 00:06:49 COLEMBERT 9,756 06:09
617 34 BUTEL COQUET AURELIE GEOFFREY 00:55:25 DUX 25 00:25:30 00:19:26 9,744 06:09
618 35 BUTEL BAILLY MARIE JULIEN 00:55:26 DUX 26 00:25:31 00:19:27 9,741 06:10
619 501 DEFACHELLES PEGGY 00:55:33 V1F 50 00:25:38 00:18:38 - 9,721 06:10
620 23 DARRAS LANOO Benjamin Laury 00:55:33 DUX 27 00:25:38 00:19:34 9,721 06:10
621 527 GOURNAY THERESE MARIE 00:55:34 V2F 16 00:25:39 00:14:07 ATHLETIQUE CLUB CAPELLOIS 9,718 06:10
622 329 MARC SEBASTIEN 00:55:37 V1M 179 00:25:42 00:23:41 9,709 06:11
623 773 FARGUES HELENE 00:55:43 SEF 44 00:25:48 00:19:41 9,692 06:11
624 664 LAMOTE ARMANDINE 00:55:46 V2F 17 00:25:51 00:14:19 WIMEREUX RUNNING CLUB 9,683 06:12
625 837 DAMBRON FRANCOIS 00:55:51 V1M 180 00:25:56 00:23:55 NL 9,669 06:12
626 835 DESEILLE PHILIPPE 00:56:08 V2M 95 00:26:13 00:21:39 - 9,620 06:14
627 568 FRISQUET AURELIE 00:56:08 SEF 45 00:26:13 00:20:06 AMICALE HOSPITALIERS BOULOGNE 9,620 06:14
628 591 PERRODIN VERONIQUE 00:56:08 V2F 18 00:26:13 00:14:41 9,620 06:14
629 574 CARPENTIER ANTOINE 00:56:08 SEM 152 00:26:13 00:26:13 AMICALE HOSPITALIERS BOULOGNE 9,620 06:14
630 17 DEPIERRE DELATTRE Charlotte Philippe 00:56:09 DUX 28 00:26:14 00:20:10 Le Drapeau 9,617 06:14
631 379 HADDOUCHE KADER 00:56:11 V1M 181 00:26:16 00:24:15 9,611 06:15
632 732 SABATIER JULIE 00:56:13 SEF 46 00:26:18 00:20:11 - 9,606 06:15
633 428 MODOLO FANNY 00:56:22 V1F 51 00:26:27 00:19:27 LE DRAPEAU 9,580 06:16
634 202 VASSEUR FABIEN 00:56:28 V1M 182 00:26:33 00:24:32 9,563 06:16
635 107 ALEXANDRE CHRISTELE 00:56:28 V1F 52 00:26:33 00:19:33 TRIATHLON CLUB BOULONNAIS 9,563 06:16
636 225 REGNIER KARINE 00:56:33 V1F 53 00:26:38 00:19:38 9,549 06:17
637 347 REGNIER AXELLE 00:56:39 SEF 47 00:26:44 00:20:37 - 9,532 06:18
638 346 BABILOTTE VIRGINIE 00:56:41 SEF 48 00:26:46 00:20:39 9,527 06:18
639 662 HARISMENDY AMALIA 00:56:45 SEF 49 00:26:50 00:20:43 WIMEREUX RUNNING CLUB 9,515 06:18
640 154 SCHOONHEERE GILBERT 00:56:51 V4M 3 00:26:56 00:09:10 CACB 9,499 06:19
641 52 TAURINES ANNE SOPHIE 00:57:04 V1F 54 00:27:09 00:20:09 - 9,463 06:20
642 721 TELLIER ISABELLE 00:57:06 V1F 55 00:27:11 00:20:11 ATHLETISME CLUB OUTREAU 9,457 06:21
643 627 HAYEME TONY 00:57:08 SEM 153 00:27:13 00:27:13 BOULOGNE ATHLETIQUE CLUB 9,452 06:21
644 728 VERLYCK ANNICK 00:57:40 V3F 8 00:27:45 00:09:08 LE DRAPEAU 9,364 06:24
645 846 VASSEUR PERRINE 00:58:01 CAF 3 00:28:06 00:12:21 NL 9,308 06:27
646 845 MAJENE KENZA 00:58:01 CAF 4 00:28:06 00:12:21 NON LICENCIE 9,308 06:27
647 579 DEHONDT PERSYN CHRISTELLE 00:58:02 V1F 56 00:28:07 00:21:07 - 9,305 06:27
648 377 GAMBLIN MICHAEL 00:58:03 V1M 183 00:28:08 00:26:07 FOULEES LOONOISES 9,302 06:27
649 62 DELATTRE KARINE 00:58:21 SEF 50 00:28:26 00:22:19 - 9,254 06:29
650 140 NOREL ALEXIS 00:58:22 SEM 154 00:28:27 00:28:27 RUNNERS EN NORD 9,252 06:29
651 174 HALOY SYLVIE 00:58:31 V2F 19 00:28:36 00:17:04 9,228 06:30
652 200 CORDIER ANTOINE 00:58:31 SEM 155 00:28:36 00:28:36 - 9,228 06:30
653 429 MOLET DOMINIQUE 00:58:37 V4F 1 00:28:42 00:00:00 LE DRAPEAU 9,212 06:31
654 18 FIOLET MIECIELICA Olivier Lodiska 00:58:42 DUX 29 00:28:47 00:22:43 Le Drapeau 9,199 06:31
655 162 DESTEIRDT FIONA 00:58:54 SEF 51 00:28:59 00:22:52 CA COUDEKERQUE-BRANCHE 9,168 06:33
656 718 SORET BENJAMIN 00:58:56 JUM 12 00:29:01 00:23:58 ATHLETISME CLUB OUTREAU 9,163 06:33
657 263 DUHAMEL NICOLAS 00:58:56 SEM 156 00:29:01 00:29:01 PATRIOTES CROSS DE GUINES 9,163 06:33
658 444 BROUTIER STEPHANIE 00:58:57 V1F 57 00:29:02 00:22:02 9,160 06:33
659 513 TETARD HELENE 00:58:58 SEF 52 00:29:03 00:22:56 OMNISPORT CAMPAGNE LES HESDIN 9,158 06:33
660 779 SALOME FABRICE 00:59:07 V1M 184 00:29:12 00:27:11 - 9,134 06:34
661 203 BARRE BEATRICE 00:59:08 V2F 20 00:29:13 00:17:41 COURIR A GRAVELINES 9,132 06:34
662 184 CUVELLIER KARINE 00:59:09 V2F 21 00:29:14 00:17:42 COURIR A GRAVELINES 9,129 06:34
663 349 MAGNIER MICKAEL 00:59:15 V1M 185 00:29:20 00:27:19 - 9,114 06:35
664 279 FOURDINIER GREGOIRE 00:59:28 V1M 186 00:29:33 00:27:32 PATRIOTES CROSS DE GUINES 9,081 06:36
665 409 BEGUE ANTHONY 00:59:29 CAM 8 00:29:34 00:28:05 LE DRAPEAU 9,078 06:37
666 607 ELLART MELISSA 00:59:30 SEF 53 00:29:35 00:23:28 9,076 06:37
667 608 ROUTTIER SYLVIE 00:59:30 SEF 54 00:29:35 00:23:28 9,076 06:37
668 82 CAZIER MICHEL 00:59:39 V3M 32 00:29:44 00:19:47 - 9,053 06:38
669 74 VERRIELE BERTILLE 00:59:47 JUF 3 00:29:52 00:09:15 NON LICENCIE 9,033 06:39
670 645 LOUASSE NICOLAS 00:59:55 V2M 96 00:30:00 00:25:26 9,013 06:39
671 57 FALEMPIN DELPHINE 01:00:07 V1F 58 00:30:12 00:23:12 - 8,983 06:41
672 359 MAILLARD NADINE 01:00:18 V3F 9 00:30:23 00:11:46 SAINT MARTIN ATHLETISME 8,955 06:42
673 65 PIHL JOEL 01:00:18 V3M 33 00:30:23 00:20:26 - 8,955 06:42
674 150 BRISBAERT JEAN LUC 01:00:28 V2M 97 00:30:33 00:25:59 COURIR A GRAVELINES 8,931 06:43
675 149 DURIEZ MANON 01:00:29 SEF 55 00:30:34 00:24:27 COURIR A GRAVELINES 8,928 06:43
676 763 DEBACQ PATRICIA 01:00:31 V2F 22 00:30:36 00:19:04 GRAVELINES TRIATHLON 8,923 06:43
677 363 PHIL M BERTHE 01:00:31 V2F 23 00:30:36 00:19:04 SAINT MARTIN ATHLETISME 8,923 06:43
678 500 FROMENT SANDRINE 01:00:35 SEF 56 00:30:40 00:24:33 ALKA TRAIL 8,913 06:44
679 275 STAWSKI MAXIME 01:00:42 CAM 9 00:30:47 00:29:18 PATRIOTES CROSS DE GUINES 8,896 06:45
680 765 CORDIER JEREMY 01:00:44 SEM 157 00:30:49 00:30:49 - 8,891 06:45
681 460 DUQUENOY HELENE 01:00:45 V1F 59 00:30:50 00:23:50 JOGGING CLUB LICQUOIS 8,889 06:45
682 282 SCOTTE DELPHINE 01:00:48 V1F 60 00:30:53 00:23:53 PATRIOTES CROSS DE GUINES 8,882 06:45
683 276 STAWSKI NATHALIE 01:00:48 V1F 61 00:30:53 00:23:53 PATRIOTES CROSS DE GUINES 8,882 06:45
684 231 HAMY DANY 01:01:06 V2F 24 00:31:11 00:19:39 8,838 06:47
685 378 GERTHOFFER OLIVIER 01:01:07 V1M 187 00:31:12 00:29:11 NON LICENCIE 8,836 06:47
686 357 BOCQUET REJANE 01:01:12 V4F 2 00:31:17 00:02:35 SAINT MARTIN ATHLETISME 8,824 06:48
687 8 PRUDHOMME HENON Laurent Stacy 01:01:34 DUX 30 00:31:39 00:25:35 8,771 06:50
688 392 BRIDOUX CHRISTINE 01:01:35 V2F 25 00:31:40 00:20:08 SPORT PLUS 8,769 06:51
689 402 VERITE HERVE 01:01:36 V2M 98 00:31:41 00:27:07 SPORT PLUS 8,766 06:51
690 285 STAELENS CELINE 01:01:41 SEF 57 00:31:46 00:25:39 PATRIOTES CROSS DE GUINES 8,754 06:51
691 270 EHLEN BENOIT 01:01:41 V1M 188 00:31:46 00:29:45 PATRIOTES CROSS DE GUINES 8,754 06:51
692 648 POULY JULIE 01:01:43 SEF 58 00:31:48 00:25:41 - 8,750 06:51
693 219 POILLON VIRGINIE 01:01:45 V1F 62 00:31:50 00:24:50 - 8,745 06:52
694 431 RIQUIER MARIELLE 01:02:18 V2F 26 00:32:23 00:20:51 LE DRAPEAU 8,668 06:55
695 775 SORET MELINE 01:02:32 SEF 59 00:32:37 00:26:30 - 8,635 06:57
696 642 HENNEQUIN KARINE 01:03:23 V2F 27 00:33:28 00:21:56 - 8,520 07:03
697 316 FOUCAULT CATHERINE 01:03:46 V2F 28 00:33:51 00:22:19 CULTURE DANSE ETAPLES 8,468 07:05
698 572 CORNE-BORDEZ FRANCOISE 01:03:48 V3F 10 00:33:53 00:15:16 AMICALE HOSPITALIERS BOULOGNE 8,464 07:05
699 447 MACHOWIAK FRANCIS 01:04:17 V3M 34 00:34:22 00:24:25 BERCK A C O 8,400 07:09
700 330 MARC CATHY 01:04:51 V1F 63 00:34:56 00:27:56 8,327 07:12
701 206 GILLET JULIEN 01:05:02 SEM 158 00:35:07 00:35:07 - 8,303 07:14
702 425 LIBERT EVELYNE 01:05:56 V3F 11 00:36:01 00:17:24 LE DRAPEAU 8,190 07:20
703 740 ARGENTIN DAVID 01:05:56 V1M 189 00:36:01 00:34:00 8,190 07:20
704 650 PAQUES MAGALI 01:06:45 SEM 159 00:36:50 00:36:50 8,090 07:25
705 602 PIERRU STEPHANIE 01:06:57 SEF 60 00:37:02 00:30:55 - 8,066 07:26
706 333 LIGNIER MARIE FRANCE 01:07:34 V4F 3 00:37:39 00:08:57 - 7,992 07:30
707 274 STAWSKI FRANCK 01:08:14 V1M 190 00:38:19 00:36:18 PATRIOTES CROSS DE GUINES 7,914 07:35
708 328 FOURNIER PAULINE 01:08:20 SEF 61 00:38:25 00:32:18 - 7,902 07:36
709 201 COLLANGE ADRIEN 01:10:17 V1M 191 00:40:22 00:38:21 - 7,683 07:49
710 615 SUEUR MELANIE 01:10:18 V1F 64 00:40:23 00:33:23 BOULOGNE ATHLETIQUE CLUB 7,681 07:49
711 617 SART NATHALIE 01:10:18 V1F 65 00:40:23 00:33:23 BOULOGNE AC 7,681 07:49
712 336 DENIS NORBERT 01:10:31 V3M 35 00:40:36 00:30:39 - 7,658 07:50
713 106 GOCHE FRANCK 01:13:20 V2M 99 00:43:25 00:38:51 NON LICENCIE 7,364 08:09
714 628 DESCAMPS SEVERINE 01:14:43 SEF 62 00:44:48 00:38:41 BOULOGNE ATHLETIQUE CLUB 7,227 08:18
715 643 BAIX SANDRINE 01:14:49 V1F 66 00:44:54 00:37:54 7,218 08:19
716 293 MAHIEUX MARYSE 01:17:29 V2F 29 00:47:34 00:36:02 - 6,969 08:37

 

Juin 2018
Lun Mar Mer Jeu Ven Sam Dim
1
2
3
4
5
6
7
8
9
10
11
12
13
14
15
16
17
18
19
20
21
22
23
25
26
27
28
29
30